sensor_id;sensor_type;location;lat;lon;timestamp;P1;durP1;ratioP1;P2;durP2;ratioP2
46835;SDS011;32573;51.290;6.926;2023-07-20T00:00:46;2.70;;;1.30;;
46835;SDS011;32573;51.290;6.926;2023-07-20T00:03:14;3.83;;;1.48;;
46835;SDS011;32573;51.290;6.926;2023-07-20T00:05:46;3.72;;;1.40;;
46835;SDS011;32573;51.290;6.926;2023-07-20T00:08:15;3.40;;;1.50;;
46835;SDS011;32573;51.290;6.926;2023-07-20T00:10:45;3.58;;;1.30;;
46835;SDS011;32573;51.290;6.926;2023-07-20T00:13:14;3.03;;;1.40;;
46835;SDS011;32573;51.290;6.926;2023-07-20T00:15:45;3.28;;;1.30;;
46835;SDS011;32573;51.290;6.926;2023-07-20T00:18:14;3.42;;;1.60;;
46835;SDS011;32573;51.290;6.926;2023-07-20T00:20:43;3.05;;;1.40;;
46835;SDS011;32573;51.290;6.926;2023-07-20T00:23:12;3.00;;;1.30;;
46835;SDS011;32573;51.290;6.926;2023-07-20T00:25:41;2.97;;;1.20;;
46835;SDS011;32573;51.290;6.926;2023-07-20T00:28:11;3.28;;;1.40;;
46835;SDS011;32573;51.290;6.926;2023-07-20T00:30:41;3.22;;;1.38;;
46835;SDS011;32573;51.290;6.926;2023-07-20T00:33:10;3.20;;;1.40;;
46835;SDS011;32573;51.290;6.926;2023-07-20T00:35:40;3.25;;;1.42;;
46835;SDS011;32573;51.290;6.926;2023-07-20T00:38:08;4.05;;;1.50;;
46835;SDS011;32573;51.290;6.926;2023-07-20T00:40:37;3.42;;;1.50;;
46835;SDS011;32573;51.290;6.926;2023-07-20T00:43:07;3.50;;;1.45;;
46835;SDS011;32573;51.290;6.926;2023-07-20T00:45:38;3.83;;;1.60;;
46835;SDS011;32573;51.290;6.926;2023-07-20T00:48:07;3.75;;;1.60;;
46835;SDS011;32573;51.290;6.926;2023-07-20T00:50:36;3.30;;;1.40;;
46835;SDS011;32573;51.290;6.926;2023-07-20T00:53:05;3.30;;;1.40;;
46835;SDS011;32573;51.290;6.926;2023-07-20T00:55:35;3.92;;;1.48;;
46835;SDS011;32573;51.290;6.926;2023-07-20T00:58:03;3.63;;;1.60;;
46835;SDS011;32573;51.290;6.926;2023-07-20T01:00:34;3.30;;;1.58;;
46835;SDS011;32573;51.290;6.926;2023-07-20T01:03:04;3.05;;;1.33;;
46835;SDS011;32573;51.290;6.926;2023-07-20T01:05:35;2.80;;;1.40;;
46835;SDS011;32573;51.290;6.926;2023-07-20T01:08:11;3.08;;;1.35;;
46835;SDS011;32573;51.290;6.926;2023-07-20T01:10:46;3.20;;;1.50;;
46835;SDS011;32573;51.290;6.926;2023-07-20T01:15:53;2.90;;;1.40;;
46835;SDS011;32573;51.290;6.926;2023-07-20T01:18:26;3.42;;;1.50;;
46835;SDS011;32573;51.290;6.926;2023-07-20T01:20:56;3.17;;;1.40;;
46835;SDS011;32573;51.290;6.926;2023-07-20T01:23:33;3.72;;;1.60;;
46835;SDS011;32573;51.290;6.926;2023-07-20T01:26:24;2.58;;;1.30;;
46835;SDS011;32573;51.290;6.926;2023-07-20T01:29:06;2.78;;;1.40;;
46835;SDS011;32573;51.290;6.926;2023-07-20T01:31:49;3.22;;;1.20;;
46835;SDS011;32573;51.290;6.926;2023-07-20T01:34:21;3.20;;;1.40;;
46835;SDS011;32573;51.290;6.926;2023-07-20T01:36:52;3.00;;;1.40;;
46835;SDS011;32573;51.290;6.926;2023-07-20T01:39:22;3.10;;;1.40;;
46835;SDS011;32573;51.290;6.926;2023-07-20T01:41:52;3.13;;;1.40;;
46835;SDS011;32573;51.290;6.926;2023-07-20T01:44:21;3.08;;;1.42;;
46835;SDS011;32573;51.290;6.926;2023-07-20T01:46:51;3.45;;;1.48;;
46835;SDS011;32573;51.290;6.926;2023-07-20T01:49:19;2.85;;;1.35;;
46835;SDS011;32573;51.290;6.926;2023-07-20T01:51:48;3.83;;;1.50;;
46835;SDS011;32573;51.290;6.926;2023-07-20T01:54:17;3.50;;;1.48;;
46835;SDS011;32573;51.290;6.926;2023-07-20T01:56:45;3.00;;;1.40;;
46835;SDS011;32573;51.290;6.926;2023-07-20T01:59:14;4.10;;;1.40;;
46835;SDS011;32573;51.290;6.926;2023-07-20T02:01:42;3.25;;;1.40;;
46835;SDS011;32573;51.290;6.926;2023-07-20T02:04:13;3.30;;;1.35;;
46835;SDS011;32573;51.290;6.926;2023-07-20T02:06:41;4.03;;;1.40;;
46835;SDS011;32573;51.290;6.926;2023-07-20T02:09:10;3.25;;;1.30;;
46835;SDS011;32573;51.290;6.926;2023-07-20T02:11:40;3.72;;;1.40;;
46835;SDS011;32573;51.290;6.926;2023-07-20T02:14:09;3.53;;;1.40;;
46835;SDS011;32573;51.290;6.926;2023-07-20T02:16:37;2.85;;;1.40;;
46835;SDS011;32573;51.290;6.926;2023-07-20T02:19:06;3.28;;;1.48;;
46835;SDS011;32573;51.290;6.926;2023-07-20T02:21:36;3.60;;;1.52;;
46835;SDS011;32573;51.290;6.926;2023-07-20T02:24:06;2.97;;;1.33;;
46835;SDS011;32573;51.290;6.926;2023-07-20T02:26:34;4.15;;;1.60;;
46835;SDS011;32573;51.290;6.926;2023-07-20T02:29:03;3.30;;;1.30;;
46835;SDS011;32573;51.290;6.926;2023-07-20T02:31:32;3.60;;;1.60;;
46835;SDS011;32573;51.290;6.926;2023-07-20T02:34:00;3.10;;;1.38;;
46835;SDS011;32573;51.290;6.926;2023-07-20T02:36:29;4.05;;;1.45;;
46835;SDS011;32573;51.290;6.926;2023-07-20T02:39:01;3.70;;;1.52;;
46835;SDS011;32573;51.290;6.926;2023-07-20T02:41:33;3.47;;;1.52;;
46835;SDS011;32573;51.290;6.926;2023-07-20T02:44:02;3.67;;;1.42;;
46835;SDS011;32573;51.290;6.926;2023-07-20T02:46:30;2.90;;;1.40;;
46835;SDS011;32573;51.290;6.926;2023-07-20T02:49:00;3.45;;;1.50;;
46835;SDS011;32573;51.290;6.926;2023-07-20T02:51:28;4.13;;;1.55;;
46835;SDS011;32573;51.290;6.926;2023-07-20T02:53:57;4.47;;;1.42;;
46835;SDS011;32573;51.290;6.926;2023-07-20T02:56:27;4.15;;;1.70;;
46835;SDS011;32573;51.290;6.926;2023-07-20T02:58:55;3.15;;;1.40;;
46835;SDS011;32573;51.290;6.926;2023-07-20T03:01:24;3.20;;;1.50;;
46835;SDS011;32573;51.290;6.926;2023-07-20T03:03:56;3.08;;;1.23;;
46835;SDS011;32573;51.290;6.926;2023-07-20T03:06:25;2.88;;;1.40;;
46835;SDS011;32573;51.290;6.926;2023-07-20T03:08:53;3.50;;;1.40;;
46835;SDS011;32573;51.290;6.926;2023-07-20T03:11:22;3.35;;;1.33;;
46835;SDS011;32573;51.290;6.926;2023-07-20T03:13:52;3.03;;;1.40;;
46835;SDS011;32573;51.290;6.926;2023-07-20T03:16:23;3.13;;;1.40;;
46835;SDS011;32573;51.290;6.926;2023-07-20T03:18:53;3.95;;;1.50;;
46835;SDS011;32573;51.290;6.926;2023-07-20T03:21:25;3.38;;;1.50;;
46835;SDS011;32573;51.290;6.926;2023-07-20T03:23:53;3.90;;;1.58;;
46835;SDS011;32573;51.290;6.926;2023-07-20T03:26:23;2.78;;;1.38;;
46835;SDS011;32573;51.290;6.926;2023-07-20T03:28:53;3.70;;;1.50;;
46835;SDS011;32573;51.290;6.926;2023-07-20T03:31:22;3.03;;;1.30;;
46835;SDS011;32573;51.290;6.926;2023-07-20T03:33:51;3.42;;;1.50;;
46835;SDS011;32573;51.290;6.926;2023-07-20T03:36:20;4.22;;;1.58;;
46835;SDS011;32573;51.290;6.926;2023-07-20T03:38:49;3.85;;;1.50;;
46835;SDS011;32573;51.290;6.926;2023-07-20T03:41:18;3.88;;;1.55;;
46835;SDS011;32573;51.290;6.926;2023-07-20T03:43:48;3.75;;;1.60;;
46835;SDS011;32573;51.290;6.926;2023-07-20T03:46:19;4.15;;;1.60;;
46835;SDS011;32573;51.290;6.926;2023-07-20T03:48:48;4.10;;;1.58;;
46835;SDS011;32573;51.290;6.926;2023-07-20T03:51:16;3.60;;;1.70;;
46835;SDS011;32573;51.290;6.926;2023-07-20T03:53:45;4.18;;;1.48;;
46835;SDS011;32573;51.290;6.926;2023-07-20T03:56:14;3.30;;;1.38;;
46835;SDS011;32573;51.290;6.926;2023-07-20T03:58:42;4.22;;;1.70;;
46835;SDS011;32573;51.290;6.926;2023-07-20T04:01:11;4.32;;;1.67;;
46835;SDS011;32573;51.290;6.926;2023-07-20T04:03:42;3.35;;;1.45;;
46835;SDS011;32573;51.290;6.926;2023-07-20T04:06:15;3.53;;;1.73;;
46835;SDS011;32573;51.290;6.926;2023-07-20T04:08:45;4.72;;;1.80;;
46835;SDS011;32573;51.290;6.926;2023-07-20T04:11:14;3.60;;;1.60;;
46835;SDS011;32573;51.290;6.926;2023-07-20T04:13:43;3.50;;;1.60;;
46835;SDS011;32573;51.290;6.926;2023-07-20T04:16:11;3.92;;;1.63;;
46835;SDS011;32573;51.290;6.926;2023-07-20T04:18:41;3.95;;;1.70;;
46835;SDS011;32573;51.290;6.926;2023-07-20T04:21:10;4.30;;;1.83;;
46835;SDS011;32573;51.290;6.926;2023-07-20T04:23:39;3.92;;;1.65;;
46835;SDS011;32573;51.290;6.926;2023-07-20T04:26:07;3.65;;;1.90;;
46835;SDS011;32573;51.290;6.926;2023-07-20T04:28:36;4.88;;;2.13;;
46835;SDS011;32573;51.290;6.926;2023-07-20T04:31:11;4.13;;;1.88;;
46835;SDS011;32573;51.290;6.926;2023-07-20T04:33:41;4.40;;;2.20;;
46835;SDS011;32573;51.290;6.926;2023-07-20T04:36:10;5.85;;;2.50;;
46835;SDS011;32573;51.290;6.926;2023-07-20T04:38:39;5.35;;;2.30;;
46835;SDS011;32573;51.290;6.926;2023-07-20T04:41:17;5.32;;;2.40;;
46835;SDS011;32573;51.290;6.926;2023-07-20T04:43:48;5.22;;;2.17;;
46835;SDS011;32573;51.290;6.926;2023-07-20T04:46:24;4.78;;;2.17;;
46835;SDS011;32573;51.290;6.926;2023-07-20T04:48:54;4.45;;;2.22;;
46835;SDS011;32573;51.290;6.926;2023-07-20T04:51:24;5.70;;;2.72;;
46835;SDS011;32573;51.290;6.926;2023-07-20T04:53:55;5.15;;;2.40;;
46835;SDS011;32573;51.290;6.926;2023-07-20T04:56:25;5.95;;;2.70;;
46835;SDS011;32573;51.290;6.926;2023-07-20T04:58:55;5.18;;;2.40;;
46835;SDS011;32573;51.290;6.926;2023-07-20T05:01:24;5.05;;;2.70;;
46835;SDS011;32573;51.290;6.926;2023-07-20T05:03:55;5.30;;;2.53;;
46835;SDS011;32573;51.290;6.926;2023-07-20T05:06:25;5.60;;;3.08;;
46835;SDS011;32573;51.290;6.926;2023-07-20T05:08:53;6.03;;;2.90;;
46835;SDS011;32573;51.290;6.926;2023-07-20T05:11:22;6.32;;;2.72;;
46835;SDS011;32573;51.290;6.926;2023-07-20T05:13:51;5.47;;;2.63;;
46835;SDS011;32573;51.290;6.926;2023-07-20T05:16:19;6.43;;;3.00;;
46835;SDS011;32573;51.290;6.926;2023-07-20T05:18:49;6.18;;;2.63;;
46835;SDS011;32573;51.290;6.926;2023-07-20T05:21:19;6.40;;;3.20;;
46835;SDS011;32573;51.290;6.926;2023-07-20T05:23:48;6.22;;;3.10;;
46835;SDS011;32573;51.290;6.926;2023-07-20T05:26:17;5.68;;;3.05;;
46835;SDS011;32573;51.290;6.926;2023-07-20T05:28:46;6.25;;;3.10;;
46835;SDS011;32573;51.290;6.926;2023-07-20T05:31:14;7.43;;;3.42;;
46835;SDS011;32573;51.290;6.926;2023-07-20T05:33:43;6.65;;;3.40;;
46835;SDS011;32573;51.290;6.926;2023-07-20T05:36:12;7.55;;;3.60;;
46835;SDS011;32573;51.290;6.926;2023-07-20T05:38:42;6.57;;;3.45;;
46835;SDS011;32573;51.290;6.926;2023-07-20T05:41:10;8.27;;;3.45;;
46835;SDS011;32573;51.290;6.926;2023-07-20T05:43:39;6.25;;;3.25;;
46835;SDS011;32573;51.290;6.926;2023-07-20T05:46:09;5.45;;;3.00;;
46835;SDS011;32573;51.290;6.926;2023-07-20T05:48:38;9.18;;;3.83;;
46835;SDS011;32573;51.290;6.926;2023-07-20T05:51:07;9.20;;;5.05;;
46835;SDS011;32573;51.290;6.926;2023-07-20T05:53:35;7.65;;;3.70;;
46835;SDS011;32573;51.290;6.926;2023-07-20T05:56:06;7.25;;;4.43;;
46835;SDS011;32573;51.290;6.926;2023-07-20T05:58:37;7.43;;;3.95;;
46835;SDS011;32573;51.290;6.926;2023-07-20T06:01:05;7.95;;;3.83;;
46835;SDS011;32573;51.290;6.926;2023-07-20T06:03:34;7.53;;;4.10;;
46835;SDS011;32573;51.290;6.926;2023-07-20T06:06:04;8.57;;;4.65;;
46835;SDS011;32573;51.290;6.926;2023-07-20T06:08:33;7.53;;;3.53;;
46835;SDS011;32573;51.290;6.926;2023-07-20T06:11:02;8.07;;;4.40;;
46835;SDS011;32573;51.290;6.926;2023-07-20T06:13:32;6.72;;;4.00;;
46835;SDS011;32573;51.290;6.926;2023-07-20T06:16:01;8.88;;;4.93;;
46835;SDS011;32573;51.290;6.926;2023-07-20T06:18:30;6.65;;;4.10;;
46835;SDS011;32573;51.290;6.926;2023-07-20T06:20:59;7.20;;;4.13;;
46835;SDS011;32573;51.290;6.926;2023-07-20T06:23:28;8.13;;;4.40;;
46835;SDS011;32573;51.290;6.926;2023-07-20T06:25:57;8.38;;;4.82;;
46835;SDS011;32573;51.290;6.926;2023-07-20T06:28:25;7.60;;;4.40;;
46835;SDS011;32573;51.290;6.926;2023-07-20T06:31:00;8.82;;;5.10;;
46835;SDS011;32573;51.290;6.926;2023-07-20T06:33:29;8.15;;;4.40;;
46835;SDS011;32573;51.290;6.926;2023-07-20T06:35:58;7.25;;;4.25;;
46835;SDS011;32573;51.290;6.926;2023-07-20T06:38:26;7.43;;;4.35;;
46835;SDS011;32573;51.290;6.926;2023-07-20T06:40:58;7.10;;;4.00;;
46835;SDS011;32573;51.290;6.926;2023-07-20T06:43:30;7.47;;;4.75;;
46835;SDS011;32573;51.290;6.926;2023-07-20T06:46:03;13.05;;;6.38;;
46835;SDS011;32573;51.290;6.926;2023-07-20T06:48:31;10.70;;;5.60;;
46835;SDS011;32573;51.290;6.926;2023-07-20T06:51:20;9.02;;;5.53;;
46835;SDS011;32573;51.290;6.926;2023-07-20T06:53:49;9.05;;;5.35;;
46835;SDS011;32573;51.290;6.926;2023-07-20T06:56:18;9.45;;;5.38;;
46835;SDS011;32573;51.290;6.926;2023-07-20T06:58:51;9.93;;;5.45;;
46835;SDS011;32573;51.290;6.926;2023-07-20T07:01:21;8.20;;;4.85;;
46835;SDS011;32573;51.290;6.926;2023-07-20T07:03:50;10.15;;;5.40;;
46835;SDS011;32573;51.290;6.926;2023-07-20T07:06:22;7.40;;;4.68;;
46835;SDS011;32573;51.290;6.926;2023-07-20T07:08:52;7.53;;;4.53;;
46835;SDS011;32573;51.290;6.926;2023-07-20T07:11:21;7.35;;;4.35;;
46835;SDS011;32573;51.290;6.926;2023-07-20T07:13:50;7.90;;;4.03;;
46835;SDS011;32573;51.290;6.926;2023-07-20T07:16:19;7.68;;;4.40;;
46835;SDS011;32573;51.290;6.926;2023-07-20T07:18:51;9.13;;;5.57;;
46835;SDS011;32573;51.290;6.926;2023-07-20T07:21:26;7.90;;;4.53;;
46835;SDS011;32573;51.290;6.926;2023-07-20T07:23:55;7.38;;;4.55;;
46835;SDS011;32573;51.290;6.926;2023-07-20T07:26:24;7.72;;;4.70;;
46835;SDS011;32573;51.290;6.926;2023-07-20T07:28:53;6.38;;;4.07;;
46835;SDS011;32573;51.290;6.926;2023-07-20T07:31:24;7.57;;;4.20;;
46835;SDS011;32573;51.290;6.926;2023-07-20T07:33:53;7.55;;;4.40;;
46835;SDS011;32573;51.290;6.926;2023-07-20T07:36:22;8.25;;;4.68;;
46835;SDS011;32573;51.290;6.926;2023-07-20T07:38:51;6.47;;;4.07;;
46835;SDS011;32573;51.290;6.926;2023-07-20T07:41:23;7.53;;;4.05;;
46835;SDS011;32573;51.290;6.926;2023-07-20T07:43:51;7.40;;;4.65;;
46835;SDS011;32573;51.290;6.926;2023-07-20T07:46:20;7.55;;;4.43;;
46835;SDS011;32573;51.290;6.926;2023-07-20T07:48:50;7.15;;;4.15;;
46835;SDS011;32573;51.290;6.926;2023-07-20T07:51:19;7.43;;;3.95;;
46835;SDS011;32573;51.290;6.926;2023-07-20T07:53:47;6.40;;;3.70;;
46835;SDS011;32573;51.290;6.926;2023-07-20T07:56:17;6.20;;;3.67;;
46835;SDS011;32573;51.290;6.926;2023-07-20T07:58:50;6.35;;;3.58;;
46835;SDS011;32573;51.290;6.926;2023-07-20T08:01:19;5.57;;;3.33;;
46835;SDS011;32573;51.290;6.926;2023-07-20T08:03:49;6.20;;;3.20;;
46835;SDS011;32573;51.290;6.926;2023-07-20T08:06:19;6.35;;;3.50;;
46835;SDS011;32573;51.290;6.926;2023-07-20T08:08:48;5.00;;;3.00;;
46835;SDS011;32573;51.290;6.926;2023-07-20T08:11:16;4.93;;;3.00;;
46835;SDS011;32573;51.290;6.926;2023-07-20T08:13:46;5.40;;;2.97;;
46835;SDS011;32573;51.290;6.926;2023-07-20T08:16:14;8.07;;;4.40;;
46835;SDS011;32573;51.290;6.926;2023-07-20T08:18:43;6.07;;;3.38;;
46835;SDS011;32573;51.290;6.926;2023-07-20T08:21:14;5.45;;;3.10;;
46835;SDS011;32573;51.290;6.926;2023-07-20T08:23:43;6.00;;;3.72;;
46835;SDS011;32573;51.290;6.926;2023-07-20T08:26:11;5.28;;;3.17;;
46835;SDS011;32573;51.290;6.926;2023-07-20T08:28:40;7.15;;;4.72;;
46835;SDS011;32573;51.290;6.926;2023-07-20T08:31:09;6.85;;;4.50;;
46835;SDS011;32573;51.290;6.926;2023-07-20T08:33:37;8.23;;;4.88;;
46835;SDS011;32573;51.290;6.926;2023-07-20T08:36:06;7.70;;;4.47;;
46835;SDS011;32573;51.290;6.926;2023-07-20T08:38:39;7.25;;;4.55;;
46835;SDS011;32573;51.290;6.926;2023-07-20T08:41:08;6.68;;;4.22;;
46835;SDS011;32573;51.290;6.926;2023-07-20T08:43:37;6.43;;;3.80;;
46835;SDS011;32573;51.290;6.926;2023-07-20T08:46:10;6.65;;;4.13;;
46835;SDS011;32573;51.290;6.926;2023-07-20T08:48:42;6.35;;;3.90;;
46835;SDS011;32573;51.290;6.926;2023-07-20T08:51:11;9.10;;;5.30;;
46835;SDS011;32573;51.290;6.926;2023-07-20T08:53:42;7.82;;;5.00;;
46835;SDS011;32573;51.290;6.926;2023-07-20T08:56:13;6.70;;;4.40;;
46835;SDS011;32573;51.290;6.926;2023-07-20T08:58:44;6.78;;;4.60;;
46835;SDS011;32573;51.290;6.926;2023-07-20T09:01:13;7.13;;;4.70;;
46835;SDS011;32573;51.290;6.926;2023-07-20T09:03:42;7.07;;;4.45;;
46835;SDS011;32573;51.290;6.926;2023-07-20T09:06:13;7.72;;;4.60;;
46835;SDS011;32573;51.290;6.926;2023-07-20T09:08:43;5.95;;;3.75;;
46835;SDS011;32573;51.290;6.926;2023-07-20T09:11:12;6.40;;;3.65;;
46835;SDS011;32573;51.290;6.926;2023-07-20T09:13:42;6.78;;;4.50;;
46835;SDS011;32573;51.290;6.926;2023-07-20T09:16:13;8.32;;;5.30;;
46835;SDS011;32573;51.290;6.926;2023-07-20T09:18:42;7.85;;;5.32;;
46835;SDS011;32573;51.290;6.926;2023-07-20T09:21:11;9.00;;;6.13;;
46835;SDS011;32573;51.290;6.926;2023-07-20T09:23:39;6.85;;;4.65;;
46835;SDS011;32573;51.290;6.926;2023-07-20T09:26:13;5.32;;;3.60;;
46835;SDS011;32573;51.290;6.926;2023-07-20T09:31:17;6.57;;;4.22;;
46835;SDS011;32573;51.290;6.926;2023-07-20T09:33:46;5.95;;;3.67;;
46835;SDS011;32573;51.290;6.926;2023-07-20T09:36:19;5.57;;;3.33;;
46835;SDS011;32573;51.290;6.926;2023-07-20T09:39:08;6.53;;;4.38;;
46835;SDS011;32573;51.290;6.926;2023-07-20T09:41:41;6.22;;;3.50;;
46835;SDS011;32573;51.290;6.926;2023-07-20T09:44:13;5.57;;;3.45;;
46835;SDS011;32573;51.290;6.926;2023-07-20T09:46:45;5.28;;;3.42;;
46835;SDS011;32573;51.290;6.926;2023-07-20T09:49:17;5.00;;;3.30;;
46835;SDS011;32573;51.290;6.926;2023-07-20T09:51:49;5.30;;;3.22;;
46835;SDS011;32573;51.290;6.926;2023-07-20T09:54:18;5.40;;;3.67;;
46835;SDS011;32573;51.290;6.926;2023-07-20T09:56:52;5.50;;;3.58;;
46835;SDS011;32573;51.290;6.926;2023-07-20T09:59:22;4.25;;;2.50;;
46835;SDS011;32573;51.290;6.926;2023-07-20T10:01:50;4.90;;;2.88;;
46835;SDS011;32573;51.290;6.926;2023-07-20T10:04:24;4.45;;;2.83;;
46835;SDS011;32573;51.290;6.926;2023-07-20T10:06:54;4.38;;;2.42;;
46835;SDS011;32573;51.290;6.926;2023-07-20T10:09:23;3.83;;;2.35;;
46835;SDS011;32573;51.290;6.926;2023-07-20T10:11:55;3.42;;;2.10;;
46835;SDS011;32573;51.290;6.926;2023-07-20T10:14:44;3.50;;;2.08;;
46835;SDS011;32573;51.290;6.926;2023-07-20T10:17:21;3.20;;;1.80;;
46835;SDS011;32573;51.290;6.926;2023-07-20T10:19:52;4.10;;;2.70;;
46835;SDS011;32573;51.290;6.926;2023-07-20T10:22:25;4.88;;;2.78;;
46835;SDS011;32573;51.290;6.926;2023-07-20T10:24:55;3.63;;;2.05;;
46835;SDS011;32573;51.290;6.926;2023-07-20T10:27:27;3.42;;;2.15;;
46835;SDS011;32573;51.290;6.926;2023-07-20T10:29:56;3.45;;;1.90;;
46835;SDS011;32573;51.290;6.926;2023-07-20T10:32:27;3.95;;;2.20;;
46835;SDS011;32573;51.290;6.926;2023-07-20T10:34:57;4.57;;;2.17;;
46835;SDS011;32573;51.290;6.926;2023-07-20T10:40:23;3.20;;;1.83;;
46835;SDS011;32573;51.290;6.926;2023-07-20T10:42:57;3.22;;;1.90;;
46835;SDS011;32573;51.290;6.926;2023-07-20T10:45:34;3.13;;;1.73;;
46835;SDS011;32573;51.290;6.926;2023-07-20T10:48:06;3.20;;;1.55;;
46835;SDS011;32573;51.290;6.926;2023-07-20T10:50:43;2.97;;;1.58;;
46835;SDS011;32573;51.290;6.926;2023-07-20T10:53:12;2.88;;;1.58;;
46835;SDS011;32573;51.290;6.926;2023-07-20T10:55:42;4.15;;;1.50;;
46835;SDS011;32573;51.290;6.926;2023-07-20T10:58:14;2.70;;;1.40;;
46835;SDS011;32573;51.290;6.926;2023-07-20T11:01:00;2.47;;;1.30;;
46835;SDS011;32573;51.290;6.926;2023-07-20T11:03:30;2.72;;;1.40;;
46835;SDS011;32573;51.290;6.926;2023-07-20T11:09:03;2.53;;;1.25;;
46835;SDS011;32573;51.290;6.926;2023-07-20T11:11:35;2.67;;;1.20;;
46835;SDS011;32573;51.290;6.926;2023-07-20T11:14:08;2.42;;;1.20;;
46835;SDS011;32573;51.290;6.926;2023-07-20T11:16:40;2.30;;;1.17;;
46835;SDS011;32573;51.290;6.926;2023-07-20T11:19:15;2.13;;;1.05;;
46835;SDS011;32573;51.290;6.926;2023-07-20T11:21:49;2.50;;;1.10;;
46835;SDS011;32573;51.290;6.926;2023-07-20T11:24:30;1.88;;;1.00;;
46835;SDS011;32573;51.290;6.926;2023-07-20T11:26:59;1.83;;;0.93;;
46835;SDS011;32573;51.290;6.926;2023-07-20T11:29:30;1.75;;;0.98;;
46835;SDS011;32573;51.290;6.926;2023-07-20T11:32:00;2.65;;;1.10;;
46835;SDS011;32573;51.290;6.926;2023-07-20T11:34:32;2.78;;;1.23;;
46835;SDS011;32573;51.290;6.926;2023-07-20T11:37:01;2.53;;;1.20;;
46835;SDS011;32573;51.290;6.926;2023-07-20T11:39:33;1.88;;;0.90;;
46835;SDS011;32573;51.290;6.926;2023-07-20T11:42:03;2.08;;;0.90;;
46835;SDS011;32573;51.290;6.926;2023-07-20T11:44:34;2.53;;;1.08;;
46835;SDS011;32573;51.290;6.926;2023-07-20T11:47:03;2.30;;;1.00;;
46835;SDS011;32573;51.290;6.926;2023-07-20T11:49:36;2.70;;;1.10;;
46835;SDS011;32573;51.290;6.926;2023-07-20T11:52:06;2.78;;;1.10;;
46835;SDS011;32573;51.290;6.926;2023-07-20T11:54:37;2.55;;;1.00;;
46835;SDS011;32573;51.290;6.926;2023-07-20T11:57:15;2.20;;;1.00;;
46835;SDS011;32573;51.290;6.926;2023-07-20T11:59:53;2.35;;;0.82;;
46835;SDS011;32573;51.290;6.926;2023-07-20T12:02:26;1.88;;;0.95;;
46835;SDS011;32573;51.290;6.926;2023-07-20T12:04:55;1.90;;;0.90;;
46835;SDS011;32573;51.290;6.926;2023-07-20T12:07:25;1.58;;;0.80;;
46835;SDS011;32573;51.290;6.926;2023-07-20T12:10:05;2.30;;;0.90;;
46835;SDS011;32573;51.290;6.926;2023-07-20T12:12:37;1.48;;;0.85;;
46835;SDS011;32573;51.290;6.926;2023-07-20T12:15:19;2.40;;;1.00;;
46835;SDS011;32573;51.290;6.926;2023-07-20T12:17:49;1.58;;;0.90;;
46835;SDS011;32573;51.290;6.926;2023-07-20T12:20:26;1.52;;;0.80;;
46835;SDS011;32573;51.290;6.926;2023-07-20T12:22:56;1.52;;;0.82;;
46835;SDS011;32573;51.290;6.926;2023-07-20T12:25:34;1.40;;;0.70;;
46835;SDS011;32573;51.290;6.926;2023-07-20T12:28:06;1.40;;;0.75;;
46835;SDS011;32573;51.290;6.926;2023-07-20T12:30:37;1.80;;;0.90;;
46835;SDS011;32573;51.290;6.926;2023-07-20T12:33:06;1.45;;;0.80;;
46835;SDS011;32573;51.290;6.926;2023-07-20T12:35:35;1.33;;;0.80;;
46835;SDS011;32573;51.290;6.926;2023-07-20T12:38:04;1.70;;;0.80;;
46835;SDS011;32573;51.290;6.926;2023-07-20T12:40:33;1.63;;;0.90;;
46835;SDS011;32573;51.290;6.926;2023-07-20T12:43:02;1.40;;;0.80;;
46835;SDS011;32573;51.290;6.926;2023-07-20T12:45:30;1.33;;;0.80;;
46835;SDS011;32573;51.290;6.926;2023-07-20T12:48:00;1.42;;;0.77;;
46835;SDS011;32573;51.290;6.926;2023-07-20T12:50:29;1.33;;;0.80;;
46835;SDS011;32573;51.290;6.926;2023-07-20T12:52:57;1.80;;;0.80;;
46835;SDS011;32573;51.290;6.926;2023-07-20T12:55:26;1.13;;;0.70;;
46835;SDS011;32573;51.290;6.926;2023-07-20T12:57:54;1.35;;;0.80;;
46835;SDS011;32573;51.290;6.926;2023-07-20T13:00:23;1.15;;;0.70;;
46835;SDS011;32573;51.290;6.926;2023-07-20T13:02:51;0.98;;;0.70;;
46835;SDS011;32573;51.290;6.926;2023-07-20T13:05:36;1.10;;;0.70;;
46835;SDS011;32573;51.290;6.926;2023-07-20T13:08:08;1.73;;;0.88;;
46835;SDS011;32573;51.290;6.926;2023-07-20T13:10:39;2.08;;;0.90;;
46835;SDS011;32573;51.290;6.926;2023-07-20T13:13:07;1.70;;;0.80;;
46835;SDS011;32573;51.290;6.926;2023-07-20T13:15:40;2.08;;;0.88;;
46835;SDS011;32573;51.290;6.926;2023-07-20T13:18:10;1.38;;;0.70;;
46835;SDS011;32573;51.290;6.926;2023-07-20T13:20:40;1.73;;;0.80;;
46835;SDS011;32573;51.290;6.926;2023-07-20T13:23:09;1.63;;;1.00;;
46835;SDS011;32573;51.290;6.926;2023-07-20T13:25:37;2.08;;;0.90;;
46835;SDS011;32573;51.290;6.926;2023-07-20T13:28:06;1.67;;;0.80;;
46835;SDS011;32573;51.290;6.926;2023-07-20T13:30:35;1.92;;;0.80;;
46835;SDS011;32573;51.290;6.926;2023-07-20T13:33:07;2.63;;;0.93;;
46835;SDS011;32573;51.290;6.926;2023-07-20T13:35:40;1.48;;;0.80;;
46835;SDS011;32573;51.290;6.926;2023-07-20T13:38:12;2.47;;;1.10;;
46835;SDS011;32573;51.290;6.926;2023-07-20T13:40:40;1.92;;;0.85;;
46835;SDS011;32573;51.290;6.926;2023-07-20T13:43:10;1.80;;;0.75;;
46835;SDS011;32573;51.290;6.926;2023-07-20T13:45:39;1.85;;;0.85;;
46835;SDS011;32573;51.290;6.926;2023-07-20T13:48:07;1.98;;;0.80;;
46835;SDS011;32573;51.290;6.926;2023-07-20T13:50:36;2.20;;;0.95;;
46835;SDS011;32573;51.290;6.926;2023-07-20T13:53:09;1.70;;;0.80;;
46835;SDS011;32573;51.290;6.926;2023-07-20T13:55:40;2.25;;;0.90;;
46835;SDS011;32573;51.290;6.926;2023-07-20T13:58:11;1.85;;;0.90;;
46835;SDS011;32573;51.290;6.926;2023-07-20T14:00:40;1.33;;;0.80;;
46835;SDS011;32573;51.290;6.926;2023-07-20T14:03:08;1.20;;;0.70;;
46835;SDS011;32573;51.290;6.926;2023-07-20T14:05:40;1.13;;;0.80;;
46835;SDS011;32573;51.290;6.926;2023-07-20T14:08:14;1.98;;;0.80;;
46835;SDS011;32573;51.290;6.926;2023-07-20T14:10:43;1.52;;;0.82;;
46835;SDS011;32573;51.290;6.926;2023-07-20T14:13:14;1.50;;;0.75;;
46835;SDS011;32573;51.290;6.926;2023-07-20T14:15:43;1.65;;;0.80;;
46835;SDS011;32573;51.290;6.926;2023-07-20T14:18:12;1.85;;;0.90;;
46835;SDS011;32573;51.290;6.926;2023-07-20T14:20:43;1.38;;;0.80;;
46835;SDS011;32573;51.290;6.926;2023-07-20T14:23:12;1.42;;;0.70;;
46835;SDS011;32573;51.290;6.926;2023-07-20T14:25:42;1.42;;;0.70;;
46835;SDS011;32573;51.290;6.926;2023-07-20T14:28:11;2.00;;;0.82;;
46835;SDS011;32573;51.290;6.926;2023-07-20T14:30:40;1.52;;;0.75;;
46835;SDS011;32573;51.290;6.926;2023-07-20T14:33:09;1.40;;;0.80;;
46835;SDS011;32573;51.290;6.926;2023-07-20T14:35:37;1.13;;;0.70;;
46835;SDS011;32573;51.290;6.926;2023-07-20T14:38:06;1.35;;;0.75;;
46835;SDS011;32573;51.290;6.926;2023-07-20T14:40:35;1.52;;;0.80;;
46835;SDS011;32573;51.290;6.926;2023-07-20T14:43:05;2.65;;;0.70;;
46835;SDS011;32573;51.290;6.926;2023-07-20T14:45:33;1.60;;;0.80;;
46835;SDS011;32573;51.290;6.926;2023-07-20T14:48:02;1.20;;;0.70;;
46835;SDS011;32573;51.290;6.926;2023-07-20T14:50:31;0.90;;;0.70;;
46835;SDS011;32573;51.290;6.926;2023-07-20T14:52:59;1.15;;;0.80;;
46835;SDS011;32573;51.290;6.926;2023-07-20T14:55:32;0.88;;;0.70;;
46835;SDS011;32573;51.290;6.926;2023-07-20T14:58:01;1.73;;;0.75;;
46835;SDS011;32573;51.290;6.926;2023-07-20T15:00:31;1.48;;;0.73;;
46835;SDS011;32573;51.290;6.926;2023-07-20T15:02:59;1.60;;;0.70;;
46835;SDS011;32573;51.290;6.926;2023-07-20T15:05:28;1.70;;;0.88;;
46835;SDS011;32573;51.290;6.926;2023-07-20T15:07:56;2.28;;;0.80;;
46835;SDS011;32573;51.290;6.926;2023-07-20T15:10:25;2.13;;;0.90;;
46835;SDS011;32573;51.290;6.926;2023-07-20T15:12:54;1.88;;;0.90;;
46835;SDS011;32573;51.290;6.926;2023-07-20T15:15:22;1.75;;;0.90;;
46835;SDS011;32573;51.290;6.926;2023-07-20T15:17:52;1.20;;;0.75;;